sensor_id;sensor_type;location;lat;lon;timestamp;P1;durP1;ratioP1;P2;durP2;ratioP2
10529;SDS011;5313;48.834;9.228;2024-02-21T00:00:28;9.47;;;4.30;;
10529;SDS011;5313;48.834;9.228;2024-02-21T00:02:54;11.07;;;4.17;;
10529;SDS011;5313;48.834;9.228;2024-02-21T00:05:20;12.77;;;4.60;;
10529;SDS011;5313;48.834;9.228;2024-02-21T00:07:45;10.70;;;4.10;;
10529;SDS011;5313;48.834;9.228;2024-02-21T00:10:11;15.93;;;4.63;;
10529;SDS011;5313;48.834;9.228;2024-02-21T00:12:36;10.20;;;4.17;;
10529;SDS011;5313;48.834;9.228;2024-02-21T00:15:02;12.93;;;4.40;;
10529;SDS011;5313;48.834;9.228;2024-02-21T00:17:27;12.67;;;4.60;;
10529;SDS011;5313;48.834;9.228;2024-02-21T00:19:53;13.63;;;4.80;;
10529;SDS011;5313;48.834;9.228;2024-02-21T00:22:19;12.60;;;4.30;;
10529;SDS011;5313;48.834;9.228;2024-02-21T00:24:44;10.23;;;3.90;;
10529;SDS011;5313;48.834;9.228;2024-02-21T00:27:09;9.43;;;4.33;;
10529;SDS011;5313;48.834;9.228;2024-02-21T00:29:35;9.60;;;4.37;;
10529;SDS011;5313;48.834;9.228;2024-02-21T00:32:01;8.23;;;4.30;;
10529;SDS011;5313;48.834;9.228;2024-02-21T00:34:26;11.23;;;4.47;;
10529;SDS011;5313;48.834;9.228;2024-02-21T00:36:52;10.80;;;4.70;;
10529;SDS011;5313;48.834;9.228;2024-02-21T00:39:17;8.70;;;4.23;;
10529;SDS011;5313;48.834;9.228;2024-02-21T00:41:43;8.57;;;4.17;;
10529;SDS011;5313;48.834;9.228;2024-02-21T00:44:08;11.73;;;4.27;;
10529;SDS011;5313;48.834;9.228;2024-02-21T00:46:35;9.13;;;4.73;;
10529;SDS011;5313;48.834;9.228;2024-02-21T00:49:00;10.63;;;3.97;;
10529;SDS011;5313;48.834;9.228;2024-02-21T00:51:26;10.13;;;4.13;;
10529;SDS011;5313;48.834;9.228;2024-02-21T00:53:51;8.07;;;4.03;;
10529;SDS011;5313;48.834;9.228;2024-02-21T00:56:17;11.07;;;4.50;;
10529;SDS011;5313;48.834;9.228;2024-02-21T00:58:42;10.27;;;4.10;;
10529;SDS011;5313;48.834;9.228;2024-02-21T01:01:08;8.67;;;3.67;;
10529;SDS011;5313;48.834;9.228;2024-02-21T01:03:33;12.33;;;4.50;;
10529;SDS011;5313;48.834;9.228;2024-02-21T01:05:59;10.47;;;3.87;;
10529;SDS011;5313;48.834;9.228;2024-02-21T01:08:24;10.07;;;4.00;;
10529;SDS011;5313;48.834;9.228;2024-02-21T01:10:50;9.43;;;4.03;;
10529;SDS011;5313;48.834;9.228;2024-02-21T01:13:16;12.27;;;4.53;;
10529;SDS011;5313;48.834;9.228;2024-02-21T01:15:41;9.87;;;4.30;;
10529;SDS011;5313;48.834;9.228;2024-02-21T01:18:07;13.30;;;4.23;;
10529;SDS011;5313;48.834;9.228;2024-02-21T01:20:32;7.80;;;3.60;;
10529;SDS011;5313;48.834;9.228;2024-02-21T01:22:58;8.70;;;3.93;;
10529;SDS011;5313;48.834;9.228;2024-02-21T01:25:23;13.63;;;4.13;;
10529;SDS011;5313;48.834;9.228;2024-02-21T01:27:49;10.37;;;3.80;;
10529;SDS011;5313;48.834;9.228;2024-02-21T01:30:14;9.80;;;4.10;;
10529;SDS011;5313;48.834;9.228;2024-02-21T01:32:40;10.27;;;3.83;;
10529;SDS011;5313;48.834;9.228;2024-02-21T01:35:06;12.83;;;4.27;;
10529;SDS011;5313;48.834;9.228;2024-02-21T01:37:32;10.30;;;3.20;;
10529;SDS011;5313;48.834;9.228;2024-02-21T01:39:58;8.97;;;3.97;;
10529;SDS011;5313;48.834;9.228;2024-02-21T01:42:23;9.53;;;4.03;;
10529;SDS011;5313;48.834;9.228;2024-02-21T01:44:49;12.30;;;4.57;;
10529;SDS011;5313;48.834;9.228;2024-02-21T01:47:14;7.77;;;3.53;;
10529;SDS011;5313;48.834;9.228;2024-02-21T01:49:40;11.00;;;4.37;;
10529;SDS011;5313;48.834;9.228;2024-02-21T01:52:06;10.87;;;4.23;;
10529;SDS011;5313;48.834;9.228;2024-02-21T01:54:33;12.83;;;4.07;;
10529;SDS011;5313;48.834;9.228;2024-02-21T01:56:59;8.00;;;3.37;;
10529;SDS011;5313;48.834;9.228;2024-02-21T01:59:25;9.67;;;3.43;;
10529;SDS011;5313;48.834;9.228;2024-02-21T02:01:51;10.97;;;3.83;;
10529;SDS011;5313;48.834;9.228;2024-02-21T02:04:17;9.47;;;3.80;;
10529;SDS011;5313;48.834;9.228;2024-02-21T02:06:45;8.57;;;3.80;;
10529;SDS011;5313;48.834;9.228;2024-02-21T02:09:11;7.97;;;3.97;;
10529;SDS011;5313;48.834;9.228;2024-02-21T02:11:36;9.40;;;3.43;;
10529;SDS011;5313;48.834;9.228;2024-02-21T02:14:02;9.03;;;4.07;;
10529;SDS011;5313;48.834;9.228;2024-02-21T02:16:28;10.33;;;4.20;;
10529;SDS011;5313;48.834;9.228;2024-02-21T02:18:53;11.97;;;3.93;;
10529;SDS011;5313;48.834;9.228;2024-02-21T02:21:32;12.57;;;3.87;;
10529;SDS011;5313;48.834;9.228;2024-02-21T02:24:03;11.23;;;4.03;;
10529;SDS011;5313;48.834;9.228;2024-02-21T02:26:29;10.37;;;3.53;;
10529;SDS011;5313;48.834;9.228;2024-02-21T02:28:55;5.47;;;3.50;;
10529;SDS011;5313;48.834;9.228;2024-02-21T02:31:20;11.27;;;3.93;;
10529;SDS011;5313;48.834;9.228;2024-02-21T02:33:46;11.37;;;3.87;;
10529;SDS011;5313;48.834;9.228;2024-02-21T02:36:13;10.53;;;4.47;;
10529;SDS011;5313;48.834;9.228;2024-02-21T02:38:38;10.00;;;4.07;;
10529;SDS011;5313;48.834;9.228;2024-02-21T02:41:04;6.87;;;3.57;;
10529;SDS011;5313;48.834;9.228;2024-02-21T02:43:29;9.97;;;4.03;;
10529;SDS011;5313;48.834;9.228;2024-02-21T02:45:55;8.47;;;3.50;;
10529;SDS011;5313;48.834;9.228;2024-02-21T02:48:20;7.97;;;3.57;;
10529;SDS011;5313;48.834;9.228;2024-02-21T02:50:46;9.53;;;4.13;;
10529;SDS011;5313;48.834;9.228;2024-02-21T02:53:11;6.63;;;3.77;;
10529;SDS011;5313;48.834;9.228;2024-02-21T02:55:37;11.13;;;4.43;;
10529;SDS011;5313;48.834;9.228;2024-02-21T02:58:02;9.87;;;3.83;;
10529;SDS011;5313;48.834;9.228;2024-02-21T03:00:28;11.17;;;3.67;;
10529;SDS011;5313;48.834;9.228;2024-02-21T03:02:54;9.37;;;3.70;;
10529;SDS011;5313;48.834;9.228;2024-02-21T03:05:20;11.43;;;4.33;;
10529;SDS011;5313;48.834;9.228;2024-02-21T03:07:46;6.77;;;3.50;;
10529;SDS011;5313;48.834;9.228;2024-02-21T03:10:12;6.90;;;3.47;;
10529;SDS011;5313;48.834;9.228;2024-02-21T03:12:39;7.80;;;3.50;;
10529;SDS011;5313;48.834;9.228;2024-02-21T03:15:04;7.07;;;3.43;;
10529;SDS011;5313;48.834;9.228;2024-02-21T03:17:31;12.30;;;4.50;;
10529;SDS011;5313;48.834;9.228;2024-02-21T03:19:59;12.60;;;4.40;;
10529;SDS011;5313;48.834;9.228;2024-02-21T03:22:24;11.77;;;3.67;;
10529;SDS011;5313;48.834;9.228;2024-02-21T03:24:50;9.00;;;4.00;;
10529;SDS011;5313;48.834;9.228;2024-02-21T03:27:16;8.43;;;3.87;;
10529;SDS011;5313;48.834;9.228;2024-02-21T03:29:42;11.23;;;4.20;;
10529;SDS011;5313;48.834;9.228;2024-02-21T03:32:07;10.00;;;3.87;;
10529;SDS011;5313;48.834;9.228;2024-02-21T03:34:33;11.30;;;3.83;;
10529;SDS011;5313;48.834;9.228;2024-02-21T03:36:58;6.50;;;3.30;;
10529;SDS011;5313;48.834;9.228;2024-02-21T03:39:24;12.53;;;3.53;;
10529;SDS011;5313;48.834;9.228;2024-02-21T03:41:50;7.67;;;2.93;;
10529;SDS011;5313;48.834;9.228;2024-02-21T03:44:16;8.77;;;3.00;;
10529;SDS011;5313;48.834;9.228;2024-02-21T03:46:42;11.07;;;3.20;;
10529;SDS011;5313;48.834;9.228;2024-02-21T03:49:07;7.37;;;2.93;;
10529;SDS011;5313;48.834;9.228;2024-02-21T03:51:33;7.40;;;3.00;;
10529;SDS011;5313;48.834;9.228;2024-02-21T03:53:58;9.63;;;3.00;;
10529;SDS011;5313;48.834;9.228;2024-02-21T03:56:24;11.40;;;2.93;;
10529;SDS011;5313;48.834;9.228;2024-02-21T03:58:49;7.43;;;3.30;;
10529;SDS011;5313;48.834;9.228;2024-02-21T04:01:15;7.87;;;2.97;;
10529;SDS011;5313;48.834;9.228;2024-02-21T04:03:41;7.63;;;2.70;;
10529;SDS011;5313;48.834;9.228;2024-02-21T04:06:08;5.20;;;2.60;;
10529;SDS011;5313;48.834;9.228;2024-02-21T04:08:34;8.47;;;3.43;;
10529;SDS011;5313;48.834;9.228;2024-02-21T04:11:00;8.07;;;3.30;;
10529;SDS011;5313;48.834;9.228;2024-02-21T04:13:25;9.17;;;3.10;;
10529;SDS011;5313;48.834;9.228;2024-02-21T04:15:51;8.27;;;3.20;;
10529;SDS011;5313;48.834;9.228;2024-02-21T04:18:17;8.67;;;3.40;;
10529;SDS011;5313;48.834;9.228;2024-02-21T04:20:42;10.40;;;2.90;;
10529;SDS011;5313;48.834;9.228;2024-02-21T04:23:08;10.60;;;3.30;;
10529;SDS011;5313;48.834;9.228;2024-02-21T04:25:34;6.83;;;3.27;;
10529;SDS011;5313;48.834;9.228;2024-02-21T04:27:59;6.27;;;3.20;;
10529;SDS011;5313;48.834;9.228;2024-02-21T04:30:25;8.77;;;3.33;;
10529;SDS011;5313;48.834;9.228;2024-02-21T04:32:51;8.67;;;3.37;;
10529;SDS011;5313;48.834;9.228;2024-02-21T04:35:16;7.97;;;3.10;;
10529;SDS011;5313;48.834;9.228;2024-02-21T04:37:42;7.10;;;3.27;;
10529;SDS011;5313;48.834;9.228;2024-02-21T04:40:07;9.00;;;3.27;;
10529;SDS011;5313;48.834;9.228;2024-02-21T04:42:34;7.90;;;3.50;;
10529;SDS011;5313;48.834;9.228;2024-02-21T04:44:59;9.17;;;3.23;;
10529;SDS011;5313;48.834;9.228;2024-02-21T04:47:25;7.20;;;3.33;;
10529;SDS011;5313;48.834;9.228;2024-02-21T04:49:51;11.13;;;4.20;;
10529;SDS011;5313;48.834;9.228;2024-02-21T04:52:17;9.40;;;3.40;;
10529;SDS011;5313;48.834;9.228;2024-02-21T04:54:42;7.47;;;3.80;;
10529;SDS011;5313;48.834;9.228;2024-02-21T04:57:08;9.13;;;3.63;;
10529;SDS011;5313;48.834;9.228;2024-02-21T04:59:35;9.87;;;3.20;;
10529;SDS011;5313;48.834;9.228;2024-02-21T05:02:01;9.87;;;3.50;;
10529;SDS011;5313;48.834;9.228;2024-02-21T05:04:27;8.50;;;3.80;;
10529;SDS011;5313;48.834;9.228;2024-02-21T05:06:52;7.80;;;3.33;;
10529;SDS011;5313;48.834;9.228;2024-02-21T05:09:17;7.30;;;3.77;;
10529;SDS011;5313;48.834;9.228;2024-02-21T05:11:43;12.17;;;3.70;;
10529;SDS011;5313;48.834;9.228;2024-02-21T05:14:08;10.60;;;3.20;;
10529;SDS011;5313;48.834;9.228;2024-02-21T05:16:34;7.97;;;3.07;;
10529;SDS011;5313;48.834;9.228;2024-02-21T05:18:59;9.20;;;3.43;;
10529;SDS011;5313;48.834;9.228;2024-02-21T05:21:25;10.63;;;3.23;;
10529;SDS011;5313;48.834;9.228;2024-02-21T05:23:52;9.30;;;3.10;;
10529;SDS011;5313;48.834;9.228;2024-02-21T05:26:20;11.23;;;3.30;;
10529;SDS011;5313;48.834;9.228;2024-02-21T05:28:52;8.33;;;3.03;;
10529;SDS011;5313;48.834;9.228;2024-02-21T05:31:18;6.23;;;2.93;;
10529;SDS011;5313;48.834;9.228;2024-02-21T05:33:44;6.43;;;2.73;;
10529;SDS011;5313;48.834;9.228;2024-02-21T05:36:11;6.73;;;2.53;;
10529;SDS011;5313;48.834;9.228;2024-02-21T05:38:37;6.60;;;3.20;;
10529;SDS011;5313;48.834;9.228;2024-02-21T05:41:02;6.10;;;3.07;;
10529;SDS011;5313;48.834;9.228;2024-02-21T05:43:28;4.60;;;2.40;;
10529;SDS011;5313;48.834;9.228;2024-02-21T05:45:54;6.97;;;3.47;;
10529;SDS011;5313;48.834;9.228;2024-02-21T05:48:20;5.57;;;2.63;;
10529;SDS011;5313;48.834;9.228;2024-02-21T05:50:46;6.37;;;2.80;;
10529;SDS011;5313;48.834;9.228;2024-02-21T05:53:12;7.17;;;2.60;;
10529;SDS011;5313;48.834;9.228;2024-02-21T05:55:38;6.37;;;2.60;;
10529;SDS011;5313;48.834;9.228;2024-02-21T05:58:04;6.20;;;3.27;;
10529;SDS011;5313;48.834;9.228;2024-02-21T06:00:30;6.50;;;2.87;;
10529;SDS011;5313;48.834;9.228;2024-02-21T06:02:56;7.30;;;3.27;;
10529;SDS011;5313;48.834;9.228;2024-02-21T06:05:22;8.83;;;2.93;;
10529;SDS011;5313;48.834;9.228;2024-02-21T06:07:47;7.07;;;2.73;;
10529;SDS011;5313;48.834;9.228;2024-02-21T06:10:13;7.27;;;2.67;;
10529;SDS011;5313;48.834;9.228;2024-02-21T06:12:39;5.73;;;2.50;;
10529;SDS011;5313;48.834;9.228;2024-02-21T06:15:04;7.37;;;2.77;;
10529;SDS011;5313;48.834;9.228;2024-02-21T06:17:30;8.03;;;3.27;;
10529;SDS011;5313;48.834;9.228;2024-02-21T06:19:56;8.63;;;3.30;;
10529;SDS011;5313;48.834;9.228;2024-02-21T06:22:21;8.80;;;3.07;;
10529;SDS011;5313;48.834;9.228;2024-02-21T06:24:47;4.20;;;2.53;;
10529;SDS011;5313;48.834;9.228;2024-02-21T06:27:12;10.37;;;3.13;;
10529;SDS011;5313;48.834;9.228;2024-02-21T06:29:41;6.80;;;3.00;;
10529;SDS011;5313;48.834;9.228;2024-02-21T06:32:06;6.00;;;2.70;;
10529;SDS011;5313;48.834;9.228;2024-02-21T06:34:32;8.97;;;2.63;;
10529;SDS011;5313;48.834;9.228;2024-02-21T06:36:57;8.40;;;3.50;;
10529;SDS011;5313;48.834;9.228;2024-02-21T06:39:23;6.17;;;2.97;;
10529;SDS011;5313;48.834;9.228;2024-02-21T06:41:48;7.47;;;2.90;;
10529;SDS011;5313;48.834;9.228;2024-02-21T06:44:15;8.43;;;2.83;;
10529;SDS011;5313;48.834;9.228;2024-02-21T06:46:41;8.53;;;2.70;;
10529;SDS011;5313;48.834;9.228;2024-02-21T06:49:07;9.27;;;3.03;;
10529;SDS011;5313;48.834;9.228;2024-02-21T06:51:33;5.97;;;2.83;;
10529;SDS011;5313;48.834;9.228;2024-02-21T06:53:59;6.97;;;2.83;;
10529;SDS011;5313;48.834;9.228;2024-02-21T06:56:25;7.40;;;2.97;;
10529;SDS011;5313;48.834;9.228;2024-02-21T06:58:56;7.70;;;3.30;;
10529;SDS011;5313;48.834;9.228;2024-02-21T07:01:22;9.03;;;3.13;;
10529;SDS011;5313;48.834;9.228;2024-02-21T07:03:48;7.27;;;3.07;;
10529;SDS011;5313;48.834;9.228;2024-02-21T07:06:14;11.87;;;3.13;;
10529;SDS011;5313;48.834;9.228;2024-02-21T07:08:40;7.30;;;3.00;;
10529;SDS011;5313;48.834;9.228;2024-02-21T07:11:05;6.63;;;2.90;;
10529;SDS011;5313;48.834;9.228;2024-02-21T07:13:32;7.77;;;3.00;;
10529;SDS011;5313;48.834;9.228;2024-02-21T07:15:57;11.20;;;2.90;;
10529;SDS011;5313;48.834;9.228;2024-02-21T07:18:23;5.57;;;2.83;;
10529;SDS011;5313;48.834;9.228;2024-02-21T07:20:50;6.93;;;2.50;;
10529;SDS011;5313;48.834;9.228;2024-02-21T07:23:16;8.30;;;3.00;;
10529;SDS011;5313;48.834;9.228;2024-02-21T07:25:42;8.40;;;2.87;;
10529;SDS011;5313;48.834;9.228;2024-02-21T07:28:07;6.97;;;2.90;;
10529;SDS011;5313;48.834;9.228;2024-02-21T07:30:33;7.20;;;2.97;;
10529;SDS011;5313;48.834;9.228;2024-02-21T07:32:58;11.80;;;2.90;;
10529;SDS011;5313;48.834;9.228;2024-02-21T07:35:24;7.80;;;2.80;;
10529;SDS011;5313;48.834;9.228;2024-02-21T07:37:50;7.90;;;2.50;;
10529;SDS011;5313;48.834;9.228;2024-02-21T07:40:16;8.30;;;2.73;;
10529;SDS011;5313;48.834;9.228;2024-02-21T07:42:42;10.03;;;2.70;;
10529;SDS011;5313;48.834;9.228;2024-02-21T07:45:08;6.37;;;2.20;;
10529;SDS011;5313;48.834;9.228;2024-02-21T07:47:35;6.63;;;2.53;;
10529;SDS011;5313;48.834;9.228;2024-02-21T07:50:01;6.33;;;2.20;;
10529;SDS011;5313;48.834;9.228;2024-02-21T07:52:27;6.13;;;2.30;;
10529;SDS011;5313;48.834;9.228;2024-02-21T07:54:53;9.27;;;2.77;;
10529;SDS011;5313;48.834;9.228;2024-02-21T07:57:19;10.67;;;2.40;;
10529;SDS011;5313;48.834;9.228;2024-02-21T07:59:44;4.03;;;2.37;;
10529;SDS011;5313;48.834;9.228;2024-02-21T08:02:12;5.50;;;2.20;;
10529;SDS011;5313;48.834;9.228;2024-02-21T08:04:41;6.30;;;2.33;;
10529;SDS011;5313;48.834;9.228;2024-02-21T08:07:06;6.70;;;2.47;;
10529;SDS011;5313;48.834;9.228;2024-02-21T08:09:32;6.97;;;2.30;;
10529;SDS011;5313;48.834;9.228;2024-02-21T08:11:57;5.47;;;2.23;;
10529;SDS011;5313;48.834;9.228;2024-02-21T08:14:23;4.23;;;2.10;;
10529;SDS011;5313;48.834;9.228;2024-02-21T08:16:50;7.10;;;2.13;;
10529;SDS011;5313;48.834;9.228;2024-02-21T08:19:16;5.43;;;2.00;;
10529;SDS011;5313;48.834;9.228;2024-02-21T08:21:42;3.70;;;1.80;;
10529;SDS011;5313;48.834;9.228;2024-02-21T08:24:07;6.90;;;2.10;;
10529;SDS011;5313;48.834;9.228;2024-02-21T08:26:33;5.17;;;2.17;;
10529;SDS011;5313;48.834;9.228;2024-02-21T08:28:58;6.37;;;2.13;;
10529;SDS011;5313;48.834;9.228;2024-02-21T08:31:25;6.53;;;1.67;;
10529;SDS011;5313;48.834;9.228;2024-02-21T08:33:59;5.93;;;2.00;;
10529;SDS011;5313;48.834;9.228;2024-02-21T08:36:32;4.97;;;1.90;;
10529;SDS011;5313;48.834;9.228;2024-02-21T08:38:59;9.97;;;2.53;;
10529;SDS011;5313;48.834;9.228;2024-02-21T08:41:26;7.77;;;2.20;;
10529;SDS011;5313;48.834;9.228;2024-02-21T08:43:52;6.30;;;1.80;;
10529;SDS011;5313;48.834;9.228;2024-02-21T08:46:22;6.97;;;2.23;;
10529;SDS011;5313;48.834;9.228;2024-02-21T08:48:51;6.40;;;2.80;;
10529;SDS011;5313;48.834;9.228;2024-02-21T08:51:17;4.87;;;2.23;;
10529;SDS011;5313;48.834;9.228;2024-02-21T08:53:46;4.57;;;1.73;;
10529;SDS011;5313;48.834;9.228;2024-02-21T08:56:13;7.03;;;1.97;;
10529;SDS011;5313;48.834;9.228;2024-02-21T08:58:41;4.50;;;2.00;;
10529;SDS011;5313;48.834;9.228;2024-02-21T09:01:07;4.60;;;2.13;;
10529;SDS011;5313;48.834;9.228;2024-02-21T09:03:35;6.50;;;2.40;;
10529;SDS011;5313;48.834;9.228;2024-02-21T09:06:01;6.60;;;2.13;;
10529;SDS011;5313;48.834;9.228;2024-02-21T09:08:26;7.23;;;2.50;;
10529;SDS011;5313;48.834;9.228;2024-02-21T09:10:52;9.20;;;2.33;;
10529;SDS011;5313;48.834;9.228;2024-02-21T09:13:18;6.47;;;2.23;;
10529;SDS011;5313;48.834;9.228;2024-02-21T09:15:44;7.00;;;1.80;;
10529;SDS011;5313;48.834;9.228;2024-02-21T09:18:09;4.70;;;2.20;;
10529;SDS011;5313;48.834;9.228;2024-02-21T09:20:35;4.03;;;1.70;;
10529;SDS011;5313;48.834;9.228;2024-02-21T09:23:01;4.97;;;1.83;;
10529;SDS011;5313;48.834;9.228;2024-02-21T09:25:26;7.57;;;2.23;;
10529;SDS011;5313;48.834;9.228;2024-02-21T09:27:53;5.97;;;1.87;;
10529;SDS011;5313;48.834;9.228;2024-02-21T09:30:19;8.70;;;2.13;;
10529;SDS011;5313;48.834;9.228;2024-02-21T09:32:44;5.03;;;2.50;;
10529;SDS011;5313;48.834;9.228;2024-02-21T09:35:10;6.17;;;1.90;;
10529;SDS011;5313;48.834;9.228;2024-02-21T09:37:37;6.63;;;2.30;;
10529;SDS011;5313;48.834;9.228;2024-02-21T09:40:06;5.73;;;1.77;;
10529;SDS011;5313;48.834;9.228;2024-02-21T09:42:38;7.47;;;2.30;;
10529;SDS011;5313;48.834;9.228;2024-02-21T09:50:06;4.40;;;2.20;;
10529;SDS011;5313;48.834;9.228;2024-02-21T09:52:33;5.90;;;2.60;;
10529;SDS011;5313;48.834;9.228;2024-02-21T09:55:00;6.87;;;2.57;;
10529;SDS011;5313;48.834;9.228;2024-02-21T09:57:27;6.53;;;1.93;;
10529;SDS011;5313;48.834;9.228;2024-02-21T09:59:53;7.57;;;2.20;;
10529;SDS011;5313;48.834;9.228;2024-02-21T10:02:21;6.30;;;1.57;;
10529;SDS011;5313;48.834;9.228;2024-02-21T10:04:47;7.23;;;1.90;;
10529;SDS011;5313;48.834;9.228;2024-02-21T10:07:12;5.80;;;1.97;;
10529;SDS011;5313;48.834;9.228;2024-02-21T10:09:38;3.60;;;1.63;;
10529;SDS011;5313;48.834;9.228;2024-02-21T10:12:08;4.37;;;1.60;;
10529;SDS011;5313;48.834;9.228;2024-02-21T10:14:35;5.23;;;1.63;;
10529;SDS011;5313;48.834;9.228;2024-02-21T10:17:00;12.53;;;1.97;;
10529;SDS011;5313;48.834;9.228;2024-02-21T10:19:27;5.03;;;1.60;;
10529;SDS011;5313;48.834;9.228;2024-02-21T10:24:30;3.20;;;1.50;;
10529;SDS011;5313;48.834;9.228;2024-02-21T10:27:06;5.77;;;1.80;;
10529;SDS011;5313;48.834;9.228;2024-02-21T10:29:36;4.90;;;2.17;;
10529;SDS011;5313;48.834;9.228;2024-02-21T10:32:06;3.73;;;1.50;;
10529;SDS011;5313;48.834;9.228;2024-02-21T10:34:36;4.73;;;1.53;;
10529;SDS011;5313;48.834;9.228;2024-02-21T10:37:07;4.80;;;1.60;;
10529;SDS011;5313;48.834;9.228;2024-02-21T10:39:34;5.53;;;1.73;;
10529;SDS011;5313;48.834;9.228;2024-02-21T10:42:04;4.43;;;1.70;;
10529;SDS011;5313;48.834;9.228;2024-02-21T10:44:31;6.33;;;1.50;;
10529;SDS011;5313;48.834;9.228;2024-02-21T10:46:57;5.67;;;1.80;;
10529;SDS011;5313;48.834;9.228;2024-02-21T10:49:24;4.10;;;1.57;;
10529;SDS011;5313;48.834;9.228;2024-02-21T10:52:06;4.90;;;1.50;;
10529;SDS011;5313;48.834;9.228;2024-02-21T10:54:45;3.50;;;1.63;;
10529;SDS011;5313;48.834;9.228;2024-02-21T10:57:18;5.00;;;1.60;;
10529;SDS011;5313;48.834;9.228;2024-02-21T10:59:47;5.70;;;1.43;;
10529;SDS011;5313;48.834;9.228;2024-02-21T11:02:13;3.10;;;1.40;;
10529;SDS011;5313;48.834;9.228;2024-02-21T11:04:40;4.00;;;1.40;;
10529;SDS011;5313;48.834;9.228;2024-02-21T11:07:06;4.57;;;1.40;;
10529;SDS011;5313;48.834;9.228;2024-02-21T11:09:33;4.83;;;1.57;;
10529;SDS011;5313;48.834;9.228;2024-02-21T11:12:01;4.50;;;1.70;;
10529;SDS011;5313;48.834;9.228;2024-02-21T11:14:28;4.00;;;1.33;;
10529;SDS011;5313;48.834;9.228;2024-02-21T11:16:57;5.60;;;1.90;;
10529;SDS011;5313;48.834;9.228;2024-02-21T11:19:24;7.60;;;1.50;;
10529;SDS011;5313;48.834;9.228;2024-02-21T11:21:51;4.00;;;1.43;;
10529;SDS011;5313;48.834;9.228;2024-02-21T11:24:27;2.50;;;1.10;;
10529;SDS011;5313;48.834;9.228;2024-02-21T11:29:43;5.10;;;1.60;;
10529;SDS011;5313;48.834;9.228;2024-02-21T11:32:10;6.27;;;1.63;;
10529;SDS011;5313;48.834;9.228;2024-02-21T11:34:37;2.43;;;1.20;;
10529;SDS011;5313;48.834;9.228;2024-02-21T11:37:04;3.73;;;1.70;;
10529;SDS011;5313;48.834;9.228;2024-02-21T11:39:41;5.33;;;1.30;;
10529;SDS011;5313;48.834;9.228;2024-02-21T11:42:07;3.37;;;1.30;;
10529;SDS011;5313;48.834;9.228;2024-02-21T11:44:37;3.17;;;1.30;;
10529;SDS011;5313;48.834;9.228;2024-02-21T11:47:07;4.60;;;1.43;;
10529;SDS011;5313;48.834;9.228;2024-02-21T11:49:37;6.73;;;1.57;;
10529;SDS011;5313;48.834;9.228;2024-02-21T11:52:07;4.87;;;1.60;;
10529;SDS011;5313;48.834;9.228;2024-02-21T11:54:33;3.47;;;1.67;;
10529;SDS011;5313;48.834;9.228;2024-02-21T11:56:59;3.13;;;1.50;;
10529;SDS011;5313;48.834;9.228;2024-02-21T11:59:25;5.37;;;1.73;;
10529;SDS011;5313;48.834;9.228;2024-02-21T12:01:52;3.03;;;1.20;;
10529;SDS011;5313;48.834;9.228;2024-02-21T12:04:18;5.00;;;1.33;;
10529;SDS011;5313;48.834;9.228;2024-02-21T12:06:45;2.30;;;1.33;;
10529;SDS011;5313;48.834;9.228;2024-02-21T12:09:14;5.40;;;1.43;;
10529;SDS011;5313;48.834;9.228;2024-02-21T12:11:41;4.10;;;1.27;;
10529;SDS011;5313;48.834;9.228;2024-02-21T12:14:08;4.27;;;1.17;;
10529;SDS011;5313;48.834;9.228;2024-02-21T12:16:34;3.93;;;1.57;;
10529;SDS011;5313;48.834;9.228;2024-02-21T12:19:03;3.47;;;1.40;;
10529;SDS011;5313;48.834;9.228;2024-02-21T12:21:34;3.57;;;1.17;;
10529;SDS011;5313;48.834;9.228;2024-02-21T12:24:13;4.37;;;1.30;;
10529;SDS011;5313;48.834;9.228;2024-02-21T12:26:46;3.47;;;1.23;;
10529;SDS011;5313;48.834;9.228;2024-02-21T12:29:11;4.57;;;1.70;;
10529;SDS011;5313;48.834;9.228;2024-02-21T12:31:37;3.53;;;1.53;;
10529;SDS011;5313;48.834;9.228;2024-02-21T12:34:03;4.83;;;1.33;;
10529;SDS011;5313;48.834;9.228;2024-02-21T12:36:30;3.10;;;1.20;;
10529;SDS011;5313;48.834;9.228;2024-02-21T12:38:56;3.37;;;1.30;;
10529;SDS011;5313;48.834;9.228;2024-02-21T12:41:21;4.47;;;1.00;;
10529;SDS011;5313;48.834;9.228;2024-02-21T12:43:47;2.83;;;1.10;;
10529;SDS011;5313;48.834;9.228;2024-02-21T12:46:12;2.80;;;1.53;;
10529;SDS011;5313;48.834;9.228;2024-02-21T12:48:38;2.57;;;1.00;;
10529;SDS011;5313;48.834;9.228;2024-02-21T12:51:04;3.40;;;1.00;;
10529;SDS011;5313;48.834;9.228;2024-02-21T12:53:30;4.37;;;1.20;;
10529;SDS011;5313;48.834;9.228;2024-02-21T12:55:56;2.07;;;1.00;;
10529;SDS011;5313;48.834;9.228;2024-02-21T12:58:21;2.50;;;1.47;;
10529;SDS011;5313;48.834;9.228;2024-02-21T13:00:47;2.50;;;0.97;;
10529;SDS011;5313;48.834;9.228;2024-02-21T13:03:13;2.47;;;1.00;;
10529;SDS011;5313;48.834;9.228;2024-02-21T13:05:39;2.97;;;0.93;;
10529;SDS011;5313;48.834;9.228;2024-02-21T13:08:14;2.20;;;1.07;;
10529;SDS011;5313;48.834;9.228;2024-02-21T13:10:39;2.97;;;1.23;;
10529;SDS011;5313;48.834;9.228;2024-02-21T13:13:05;2.80;;;1.20;;
10529;SDS011;5313;48.834;9.228;2024-02-21T13:15:30;3.50;;;1.03;;
10529;SDS011;5313;48.834;9.228;2024-02-21T13:17:56;2.23;;;0.80;;
10529;SDS011;5313;48.834;9.228;2024-02-21T13:20:23;3.33;;;1.00;;
10529;SDS011;5313;48.834;9.228;2024-02-21T13:22:48;3.63;;;1.63;;
10529;SDS011;5313;48.834;9.228;2024-02-21T13:25:14;2.50;;;0.90;;
10529;SDS011;5313;48.834;9.228;2024-02-21T13:27:43;4.93;;;1.00;;
10529;SDS011;5313;48.834;9.228;2024-02-21T13:30:09;2.37;;;1.03;;
10529;SDS011;5313;48.834;9.228;2024-02-21T13:32:35;3.00;;;1.50;;
10529;SDS011;5313;48.834;9.228;2024-02-21T13:35:00;2.90;;;1.10;;
10529;SDS011;5313;48.834;9.228;2024-02-21T13:37:26;1.73;;;1.00;;
10529;SDS011;5313;48.834;9.228;2024-02-21T13:39:52;2.90;;;1.00;;
10529;SDS011;5313;48.834;9.228;2024-02-21T13:42:18;3.73;;;1.00;;
10529;SDS011;5313;48.834;9.228;2024-02-21T13:44:44;2.70;;;1.03;;
10529;SDS011;5313;48.834;9.228;2024-02-21T13:47:10;1.97;;;1.00;;
10529;SDS011;5313;48.834;9.228;2024-02-21T13:49:38;2.40;;;1.10;;
10529;SDS011;5313;48.834;9.228;2024-02-21T13:52:04;3.17;;;1.23;;
10529;SDS011;5313;48.834;9.228;2024-02-21T13:54:30;3.87;;;1.10;;
10529;SDS011;5313;48.834;9.228;2024-02-21T13:56:55;4.03;;;1.33;;
10529;SDS011;5313;48.834;9.228;2024-02-21T13:59:21;1.90;;;0.90;;
10529;SDS011;5313;48.834;9.228;2024-02-21T14:01:46;2.53;;;0.93;;
10529;SDS011;5313;48.834;9.228;2024-02-21T14:04:12;3.40;;;0.90;;
10529;SDS011;5313;48.834;9.228;2024-02-21T14:06:37;1.90;;;0.90;;
10529;SDS011;5313;48.834;9.228;2024-02-21T14:09:08;2.73;;;1.00;;
10529;SDS011;5313;48.834;9.228;2024-02-21T14:11:34;3.20;;;1.07;;
10529;SDS011;5313;48.834;9.228;2024-02-21T14:14:00;6.27;;;1.00;;
10529;SDS011;5313;48.834;9.228;2024-02-21T14:16:25;2.00;;;1.00;;
10529;SDS011;5313;48.834;9.228;2024-02-21T14:18:51;2.70;;;1.03;;
10529;SDS011;5313;48.834;9.228;2024-02-21T14:21:16;5.17;;;0.80;;
10529;SDS011;5313;48.834;9.228;2024-02-21T14:23:42;3.70;;;1.00;;
10529;SDS011;5313;48.834;9.228;2024-02-21T14:26:08;1.93;;;0.87;;
10529;SDS011;5313;48.834;9.228;2024-02-21T14:28:34;8.30;;;1.13;;
10529;SDS011;5313;48.834;9.228;2024-02-21T14:30:59;2.23;;;0.90;;
10529;SDS011;5313;48.834;9.228;2024-02-21T14:33:26;1.83;;;0.90;;
10529;SDS011;5313;48.834;9.228;2024-02-21T14:35:52;2.03;;;1.00;;
10529;SDS011;5313;48.834;9.228;2024-02-21T14:38:18;3.33;;;1.60;;
10529;SDS011;5313;48.834;9.228;2024-02-21T14:40:46;2.60;;;1.17;;
10529;SDS011;5313;48.834;9.228;2024-02-21T14:43:11;2.43;;;1.00;;
10529;SDS011;5313;48.834;9.228;2024-02-21T14:45:37;3.93;;;1.17;;
10529;SDS011;5313;48.834;9.228;2024-02-21T14:48:06;2.43;;;1.10;;
10529;SDS011;5313;48.834;9.228;2024-02-21T14:50:32;3.60;;;0.93;;
10529;SDS011;5313;48.834;9.228;2024-02-21T14:52:58;1.83;;;0.90;;
10529;SDS011;5313;48.834;9.228;2024-02-21T14:55:24;1.80;;;0.80;;
10529;SDS011;5313;48.834;9.228;2024-02-21T14:57:49;1.63;;;0.80;;
10529;SDS011;5313;48.834;9.228;2024-02-21T15:00:15;2.03;;;1.00;;
10529;SDS011;5313;48.834;9.228;2024-02-21T15:02:41;3.67;;;1.00;;